createdAt,value
2018-10-09T00:00:23.630Z,88.64
2018-10-09T00:01:23.624Z,88.40
2018-10-09T00:02:23.621Z,88.69
2018-10-09T00:03:23.716Z,88.78
2018-10-09T00:04:23.659Z,89.07
2018-10-09T00:05:23.625Z,88.84
2018-10-09T00:06:23.652Z,88.64
2018-10-09T00:07:23.598Z,88.84
2018-10-09T00:08:23.594Z,88.78
2018-10-09T00:09:23.593Z,88.55
2018-10-09T00:10:23.589Z,88.98
2018-10-09T00:11:23.584Z,88.78
2018-10-09T00:12:23.578Z,88.98
2018-10-09T00:13:23.572Z,88.98
2018-10-09T00:14:23.570Z,88.88
2018-10-09T00:15:23.563Z,88.88
2018-10-09T00:16:23.567Z,88.69
2018-10-09T00:17:23.555Z,88.69
2018-10-09T00:18:23.583Z,88.69
2018-10-09T00:19:23.610Z,88.98
2018-10-09T00:20:23.628Z,88.78
2018-10-09T00:21:23.577Z,89.07
2018-10-09T00:22:25.127Z,89.07
2018-10-09T00:23:23.531Z,89.07
2018-10-09T00:24:23.530Z,89.17
2018-10-09T00:25:23.522Z,88.98
2018-10-09T00:26:23.518Z,88.88
2018-10-09T00:27:23.514Z,89.17
2018-10-09T00:28:23.509Z,88.98
2018-10-09T00:29:23.504Z,89.07
2018-10-09T00:30:23.500Z,88.88
2018-10-09T00:31:23.495Z,88.98
2018-10-09T00:32:23.512Z,89.07
2018-10-09T00:33:23.486Z,89.07
2018-10-09T00:34:23.482Z,89.17
2018-10-09T00:35:23.479Z,89.07
2018-10-09T00:36:23.474Z,88.98
2018-10-09T00:37:23.470Z,89.12
2018-10-09T00:38:23.465Z,89.22
2018-10-09T00:39:23.462Z,89.12
2018-10-09T00:40:23.453Z,89.12
2018-10-09T00:41:23.453Z,89.03
2018-10-09T00:42:23.453Z,89.12
2018-10-09T00:43:23.449Z,89.12
2018-10-09T00:44:23.438Z,89.12
2018-10-09T00:45:23.435Z,89.12
2018-10-09T00:46:23.505Z,88.93
2018-10-09T00:47:23.425Z,89.12
2018-10-09T00:48:23.558Z,88.93
2018-10-09T00:49:23.420Z,88.84
2018-10-09T00:50:23.416Z,89.03
2018-10-09T00:51:23.420Z,89.03
2018-10-09T00:52:23.407Z,88.93
2018-10-09T00:53:23.411Z,88.93
2018-10-09T00:54:23.395Z,88.93
2018-10-09T00:55:24.136Z,89.03
2018-10-09T00:56:23.400Z,88.74
2018-10-09T00:57:24.168Z,88.93
2018-10-09T00:58:23.381Z,89.03
2018-10-09T00:59:23.372Z,89.03
2018-10-09T01:00:23.366Z,89.12
2018-10-09T01:01:23.364Z,89.03
2018-10-09T01:02:23.360Z,88.84
2018-10-09T01:03:23.355Z,89.03
2018-10-09T01:04:23.352Z,89.03
2018-10-09T01:05:23.346Z,89.03
2018-10-09T01:06:23.346Z,89.12
2018-10-09T01:07:23.336Z,88.84
2018-10-09T01:08:23.333Z,88.93
2018-10-09T01:09:23.341Z,89.22
2018-10-09T01:10:23.396Z,88.84
2018-10-09T01:11:23.320Z,89.03
2018-10-09T01:12:23.318Z,88.93
2018-10-09T01:13:23.321Z,88.84
2018-10-09T01:14:23.306Z,88.93
2018-10-09T01:15:23.303Z,88.93
2018-10-09T01:16:23.311Z,89.12
2018-10-09T01:17:23.327Z,89.12
2018-10-09T01:18:23.289Z,88.93
2018-10-09T01:19:23.282Z,88.93
2018-10-09T01:20:23.279Z,88.93
2018-10-09T01:21:23.273Z,89.12
2018-10-09T01:22:23.271Z,89.03
2018-10-09T01:23:23.267Z,89.12
2018-10-09T01:24:23.270Z,88.93
2018-10-09T01:25:23.258Z,88.84
2018-10-09T01:26:23.253Z,89.12
2018-10-09T01:27:23.251Z,88.93
2018-10-09T01:28:23.249Z,88.84
2018-10-09T01:29:23.240Z,89.22
2018-10-09T01:30:23.235Z,88.64
2018-10-09T01:31:23.230Z,88.84
2018-10-09T01:32:23.226Z,88.93
2018-10-09T01:33:23.222Z,88.84
2018-10-09T01:34:23.219Z,89.03
2018-10-09T01:35:23.212Z,88.93
2018-10-09T01:36:23.211Z,88.93
2018-10-09T01:37:23.203Z,89.03
2018-10-09T01:38:23.210Z,88.93
2018-10-09T01:39:23.199Z,89.31
2018-10-09T01:40:23.187Z,88.84
2018-10-09T01:41:23.187Z,88.84
2018-10-09T01:42:23.192Z,88.64
2018-10-09T01:43:23.177Z,89.40
2018-10-09T01:44:23.172Z,89.69
2018-10-09T01:45:23.168Z,88.74
2018-10-09T01:46:23.163Z,89.40
2018-10-09T01:47:23.159Z,88.74
2018-10-09T01:48:23.153Z,89.03
2018-10-09T01:49:23.148Z,88.74
2018-10-09T01:50:23.145Z,88.74
2018-10-09T01:51:23.140Z,88.93
2018-10-09T01:52:23.136Z,88.93
2018-10-09T01:53:23.135Z,88.84
2018-10-09T01:54:23.125Z,88.93
2018-10-09T01:55:23.123Z,89.03
2018-10-09T01:56:23.122Z,89.40
2018-10-09T01:57:23.117Z,88.64
2018-10-09T01:58:23.109Z,89.12
2018-10-09T01:59:23.104Z,88.55
2018-10-09T02:00:23.100Z,89.03
2018-10-09T02:01:23.096Z,89.03
2018-10-09T02:02:23.094Z,89.12
2018-10-09T02:03:23.088Z,89.22
2018-10-09T02:04:23.082Z,89.31
2018-10-09T02:05:23.079Z,89.31
2018-10-09T02:06:23.073Z,89.22
2018-10-09T02:07:23.075Z,89.31
2018-10-09T02:08:23.063Z,89.22
2018-10-09T02:09:23.060Z,89.69
2018-10-09T02:10:23.055Z,89.40
2018-10-09T02:11:23.049Z,89.31
2018-10-09T02:12:23.046Z,89.40
2018-10-09T02:13:23.039Z,89.40
2018-10-09T02:14:23.037Z,89.40
2018-10-09T02:15:23.031Z,89.22
2018-10-09T02:16:23.026Z,89.50
2018-10-09T02:17:23.021Z,89.50
2018-10-09T02:18:23.161Z,89.31
2018-10-09T02:19:23.013Z,89.40
2018-10-09T02:20:23.008Z,89.22
2018-10-09T02:21:23.014Z,89.12
2018-10-09T02:22:23.001Z,89.40
2018-10-09T02:23:22.996Z,89.60
2018-10-09T02:24:22.988Z,89.69
2018-10-09T02:25:22.984Z,89.03
2018-10-09T02:26:22.981Z,89.12
2018-10-09T02:27:22.975Z,89.31
2018-10-09T02:28:22.970Z,89.12
2018-10-09T02:29:22.967Z,89.03
2018-10-09T02:30:22.964Z,88.74
2018-10-09T02:31:22.963Z,88.64
2018-10-09T02:32:22.950Z,88.93
2018-10-09T02:33:22.997Z,88.93
2018-10-09T02:34:22.942Z,89.12
2018-10-09T02:35:22.945Z,89.50
2018-10-09T02:36:22.934Z,89.50
2018-10-09T02:37:22.929Z,90.08
2018-10-09T02:38:22.925Z,89.60
2018-10-09T02:39:22.920Z,89.69
2018-10-09T02:40:22.915Z,89.98
2018-10-09T02:41:22.910Z,89.79
2018-10-09T02:42:22.904Z,89.60
2018-10-09T02:43:22.901Z,89.50
2018-10-09T02:44:22.895Z,89.31
2018-10-09T02:45:22.947Z,89.69
2018-10-09T02:46:22.893Z,89.69
2018-10-09T02:47:22.883Z,89.69
2018-10-09T02:48:22.879Z,89.50
2018-10-09T02:49:22.873Z,89.60
2018-10-09T02:50:22.870Z,89.50
2018-10-09T02:51:22.865Z,89.60
2018-10-09T02:52:22.858Z,89.40
2018-10-09T02:53:22.854Z,89.79
2018-10-09T02:54:22.851Z,89.22
2018-10-09T02:55:22.854Z,89.60
2018-10-09T02:56:22.840Z,89.40
2018-10-09T02:57:22.838Z,89.31
2018-10-09T02:58:22.833Z,89.40
2018-10-09T02:59:22.827Z,89.89
2018-10-09T03:00:22.825Z,89.31
2018-10-09T03:01:22.817Z,89.60
2018-10-09T03:02:22.814Z,89.50
2018-10-09T03:03:22.809Z,89.03
2018-10-09T03:04:22.804Z,89.50
2018-10-09T03:05:22.798Z,89.98
2018-10-09T03:06:22.795Z,89.69
2018-10-09T03:07:22.791Z,89.40
2018-10-09T03:08:22.798Z,89.31
2018-10-09T03:09:22.866Z,89.12
2018-10-09T03:10:22.816Z,89.12
2018-10-09T03:11:22.860Z,89.40
2018-10-09T03:12:22.790Z,89.31
2018-10-09T03:13:22.770Z,89.50
2018-10-09T03:14:22.765Z,89.31
2018-10-09T03:15:22.770Z,89.50
2018-10-09T03:16:22.769Z,89.60
2018-10-09T03:17:22.754Z,89.31
2018-10-09T03:18:37.786Z,89.69
2018-10-09T03:19:22.736Z,89.12
2018-10-09T03:20:22.731Z,89.31
2018-10-09T03:21:22.724Z,89.50
2018-10-09T03:22:22.739Z,89.60
2018-10-09T03:23:22.715Z,89.69
2018-10-09T03:24:22.709Z,89.69
2018-10-09T03:25:22.877Z,89.50
2018-10-09T03:26:22.701Z,89.50
2018-10-09T03:27:22.714Z,89.69
2018-10-09T03:28:22.689Z,89.31
2018-10-09T03:29:22.686Z,89.50
2018-10-09T03:30:22.681Z,89.31
2018-10-09T03:31:22.704Z,89.40
2018-10-09T03:32:22.672Z,89.89
2018-10-09T03:33:22.697Z,89.79
2018-10-09T03:34:22.664Z,89.50
2018-10-09T03:35:22.697Z,89.69
2018-10-09T03:36:22.654Z,89.89
2018-10-09T03:37:22.665Z,89.60
2018-10-09T03:38:22.653Z,89.79
2018-10-09T03:39:22.659Z,90.08
2018-10-09T03:40:22.669Z,89.50
2018-10-09T03:41:22.673Z,89.69
2018-10-09T03:42:22.672Z,89.69
2018-10-09T03:43:22.653Z,89.50
2018-10-09T03:44:22.665Z,89.89
2018-10-09T03:45:22.611Z,90.17
2018-10-09T03:46:22.676Z,90.26
2018-10-09T03:47:22.616Z,89.89
2018-10-09T03:48:22.696Z,89.69
2018-10-09T03:49:22.605Z,89.69
2018-10-09T03:50:22.601Z,90.17
2018-10-09T03:51:22.610Z,90.08
2018-10-09T03:52:22.584Z,89.60
2018-10-09T03:53:22.575Z,89.89
2018-10-09T03:54:22.574Z,89.60
2018-10-09T03:55:22.569Z,89.79
2018-10-09T03:56:22.562Z,89.79
2018-10-09T03:57:22.558Z,89.89
2018-10-09T03:58:22.555Z,89.89
2018-10-09T03:59:22.550Z,89.60
2018-10-09T04:00:22.543Z,89.79
2018-10-09T04:01:22.553Z,89.60
2018-10-09T04:02:22.541Z,90.08
2018-10-09T04:03:22.530Z,89.89
2018-10-09T04:04:22.530Z,89.69
2018-10-09T04:05:22.521Z,89.79
2018-10-09T04:06:22.517Z,89.69
2018-10-09T04:07:22.512Z,89.89
2018-10-09T04:08:22.510Z,89.79
2018-10-09T04:09:22.515Z,89.89
2018-10-09T04:10:22.498Z,89.60
2018-10-09T04:11:22.494Z,89.79
2018-10-09T04:12:22.489Z,89.69
2018-10-09T04:13:22.486Z,89.69
2018-10-09T04:14:22.479Z,89.69
2018-10-09T04:15:22.475Z,89.50
2018-10-09T04:16:22.469Z,89.50
2018-10-09T04:17:22.466Z,89.60
2018-10-09T04:18:22.462Z,89.89
2018-10-09T04:19:22.563Z,89.40
2018-10-09T04:20:22.452Z,89.60
2018-10-09T04:21:22.449Z,89.50
2018-10-09T04:22:22.452Z,90.08
2018-10-09T04:23:22.440Z,89.79
2018-10-09T04:24:22.435Z,89.69
2018-10-09T04:25:22.428Z,89.60
2018-10-09T04:26:22.425Z,89.50
2018-10-09T04:27:22.419Z,89.40
2018-10-09T04:28:22.412Z,89.60
2018-10-09T04:29:22.451Z,89.89
2018-10-09T04:30:22.403Z,89.50
2018-10-09T04:31:22.403Z,89.12
2018-10-09T04:32:22.395Z,89.89
2018-10-09T04:33:22.399Z,89.40
2018-10-09T04:34:22.386Z,89.69
2018-10-09T04:35:22.386Z,89.89
2018-10-09T04:36:22.376Z,89.69
2018-10-09T04:37:22.371Z,89.50
2018-10-09T04:38:22.366Z,89.79
2018-10-09T04:39:22.363Z,89.89
2018-10-09T04:40:22.360Z,89.79
2018-10-09T04:41:22.354Z,90.08
2018-10-09T04:42:22.348Z,89.89
2018-10-09T04:43:22.343Z,89.98
2018-10-09T04:44:22.337Z,89.98
2018-10-09T04:45:22.340Z,89.50
2018-10-09T04:46:22.333Z,89.89
2018-10-09T04:47:22.325Z,89.60
2018-10-09T04:48:22.330Z,89.60
2018-10-09T04:49:22.315Z,89.60
2018-10-09T04:50:22.311Z,90.08
2018-10-09T04:51:22.307Z,89.79
2018-10-09T04:52:22.300Z,89.79
2018-10-09T04:53:22.299Z,89.79
2018-10-09T04:54:22.348Z,90.08
2018-10-09T04:55:22.286Z,89.69
2018-10-09T04:56:22.285Z,89.69
2018-10-09T04:57:22.277Z,89.50
2018-10-09T04:58:22.273Z,89.79
2018-10-09T04:59:22.268Z,89.69
2018-10-09T05:00:22.268Z,89.79
2018-10-09T05:01:22.259Z,89.89
2018-10-09T05:02:22.253Z,89.79
2018-10-09T05:03:22.249Z,89.89
2018-10-09T05:04:22.245Z,90.36
2018-10-09T05:05:22.238Z,89.79
2018-10-09T05:06:22.235Z,90.08
2018-10-09T05:07:22.231Z,90.17
2018-10-09T05:08:22.226Z,90.17
2018-10-09T05:09:22.221Z,90.08
2018-10-09T05:10:22.215Z,90.17
2018-10-09T05:11:22.211Z,90.26
2018-10-09T05:12:22.205Z,89.89
2018-10-09T05:13:22.203Z,89.89
2018-10-09T05:14:22.239Z,90.17
2018-10-09T05:15:22.192Z,90.45
2018-10-09T05:16:22.187Z,90.36
2018-10-09T05:17:22.182Z,90.45
2018-10-09T05:18:22.183Z,90.45
2018-10-09T05:19:22.173Z,90.36
2018-10-09T05:20:22.166Z,90.64
2018-10-09T05:21:22.163Z,90.64
2018-10-09T05:22:22.157Z,90.93
2018-10-09T05:23:22.227Z,90.93
2018-10-09T05:24:22.152Z,90.84
2018-10-09T05:25:22.143Z,90.55
2018-10-09T05:26:22.140Z,90.26
2018-10-09T05:27:22.136Z,91.03
2018-10-09T05:28:22.131Z,90.84
2018-10-09T05:29:22.124Z,91.03
2018-10-09T05:30:22.126Z,90.84
2018-10-09T05:31:22.285Z,90.74
2018-10-09T05:32:22.111Z,91.31
2018-10-09T05:33:22.108Z,90.84
2018-10-09T05:34:22.103Z,91.03
2018-10-09T05:35:22.097Z,90.74
2018-10-09T05:36:22.093Z,90.74
2018-10-09T05:37:22.090Z,90.93
2018-10-09T05:38:22.104Z,91.03
2018-10-09T05:39:22.079Z,90.93
2018-10-09T05:40:22.074Z,90.93
2018-10-09T05:41:22.075Z,90.74
2018-10-09T05:42:22.064Z,90.93
2018-10-09T05:43:22.061Z,91.13
2018-10-09T05:44:22.169Z,90.93
2018-10-09T05:45:22.048Z,90.74
2018-10-09T05:46:22.045Z,90.84
2018-10-09T05:47:22.040Z,90.45
2018-10-09T05:48:22.041Z,90.84
2018-10-09T05:49:22.027Z,91.41
2018-10-09T05:50:22.025Z,90.45
2018-10-09T05:51:22.022Z,90.84
2018-10-09T05:52:22.049Z,90.45
2018-10-09T05:53:22.010Z,91.41
2018-10-09T05:54:22.004Z,91.41
2018-10-09T05:55:22.002Z,91.22
2018-10-09T05:56:21.997Z,91.03
2018-10-09T05:57:21.991Z,91.22
2018-10-09T05:58:21.987Z,91.13
2018-10-09T05:59:21.986Z,91.31
2018-10-09T06:00:21.981Z,91.13
2018-10-09T06:01:21.972Z,91.98
2018-10-09T06:02:21.968Z,91.31
2018-10-09T06:03:21.961Z,91.31
2018-10-09T06:04:21.957Z,91.31
2018-10-09T06:05:21.952Z,91.88
2018-10-09T06:06:21.952Z,91.22
2018-10-09T06:07:21.945Z,91.88
2018-10-09T06:08:21.939Z,91.31
2018-10-09T06:09:21.933Z,91.03
2018-10-09T06:10:21.928Z,91.31
2018-10-09T06:11:21.922Z,91.31
2018-10-09T06:12:21.919Z,92.17
2018-10-09T06:13:21.916Z,91.69
2018-10-09T06:14:21.910Z,91.83
2018-10-09T06:15:21.906Z,91.93
2018-10-09T06:16:21.900Z,91.64
2018-10-09T06:17:21.897Z,91.83
2018-10-09T06:18:21.888Z,91.83
2018-10-09T06:19:21.887Z,91.74
2018-10-09T06:20:21.880Z,91.46
2018-10-09T06:21:21.880Z,91.36
2018-10-09T06:22:21.909Z,91.64
2018-10-09T06:23:21.868Z,92.12
2018-10-09T06:24:21.863Z,92.12
2018-10-09T06:25:21.857Z,92.12
2018-10-09T06:26:21.852Z,92.12
2018-10-09T06:27:21.848Z,92.22
2018-10-09T06:28:21.898Z,92.03
2018-10-09T06:29:21.840Z,91.74
2018-10-09T06:30:21.837Z,91.74
2018-10-09T06:31:21.831Z,91.74
2018-10-09T06:32:21.826Z,91.83
2018-10-09T06:33:21.824Z,91.93
2018-10-09T06:34:21.821Z,91.83
2018-10-09T06:35:21.817Z,91.83
2018-10-09T06:36:21.809Z,91.64
2018-10-09T06:37:21.850Z,91.93
2018-10-09T06:38:21.800Z,92.03
2018-10-09T06:39:21.796Z,91.83
2018-10-09T06:40:21.826Z,91.74
2018-10-09T06:41:21.796Z,91.93
2018-10-09T06:42:21.793Z,92.69
2018-10-09T06:43:21.786Z,92.60
2018-10-09T06:44:21.820Z,92.41
2018-10-09T06:45:21.766Z,92.32
2018-10-09T06:46:21.763Z,92.32
2018-10-09T06:47:21.768Z,92.32
2018-10-09T06:48:21.816Z,92.50
2018-10-09T06:49:21.750Z,92.22
2018-10-09T06:50:21.743Z,92.60
2018-10-09T06:51:21.740Z,92.22
2018-10-09T06:52:21.741Z,92.69
2018-10-09T06:53:21.787Z,92.32
2018-10-09T06:54:21.779Z,92.32
2018-10-09T06:55:21.724Z,92.41
2018-10-09T06:56:21.718Z,92.69
2018-10-09T06:57:21.713Z,92.41
2018-10-09T06:58:21.710Z,92.50
2018-10-09T06:59:21.708Z,92.50
2018-10-09T07:00:21.780Z,92.50
2018-10-09T07:01:21.709Z,92.79
2018-10-09T07:02:21.691Z,92.32
2018-10-09T07:03:21.687Z,92.03
2018-10-09T07:04:21.683Z,92.41
2018-10-09T07:05:21.681Z,92.69
2018-10-09T07:06:21.675Z,92.60
2018-10-09T07:07:21.673Z,92.41
2018-10-09T07:08:21.675Z,92.32
2018-10-09T07:09:21.711Z,92.60
2018-10-09T07:10:21.658Z,93.17
2018-10-09T07:11:21.686Z,92.74
2018-10-09T07:12:21.654Z,93.31
2018-10-09T07:13:21.642Z,93.41
2018-10-09T07:14:21.644Z,92.65
2018-10-09T07:15:21.635Z,92.55
2018-10-09T07:16:21.630Z,92.74
2018-10-09T07:17:21.628Z,93.31
2018-10-09T07:18:21.623Z,93.31
2018-10-09T07:19:21.635Z,93.41
2018-10-09T07:20:21.614Z,92.65
2018-10-09T07:21:21.625Z,92.74
2018-10-09T07:22:21.608Z,92.46
2018-10-09T07:23:21.602Z,92.55
2018-10-09T07:24:21.600Z,93.31
2018-10-09T07:25:21.593Z,92.46
2018-10-09T07:26:21.590Z,92.65
2018-10-09T07:27:21.596Z,92.74
2018-10-09T07:28:21.586Z,92.55
2018-10-09T07:29:21.579Z,92.65
2018-10-09T07:30:21.578Z,92.65
2018-10-09T07:31:21.570Z,92.65
2018-10-09T07:32:21.566Z,92.74
2018-10-09T07:33:21.575Z,92.65
2018-10-09T07:34:21.559Z,92.65
2018-10-09T07:35:21.555Z,92.55
2018-10-09T07:36:21.549Z,92.74
2018-10-09T07:37:21.592Z,92.65
2018-10-09T07:38:21.544Z,92.65
2018-10-09T07:39:21.542Z,92.65
2018-10-09T07:40:21.532Z,92.65
2018-10-09T07:41:21.531Z,92.65
2018-10-09T07:42:21.527Z,92.55
2018-10-09T07:43:21.526Z,93.31
2018-10-09T07:44:21.587Z,92.83
2018-10-09T07:45:21.518Z,93.02
2018-10-09T07:46:21.513Z,93.55
2018-10-09T07:47:21.509Z,92.97
2018-10-09T07:48:21.504Z,92.69
2018-10-09T07:49:21.503Z,92.97
2018-10-09T07:50:21.495Z,92.79
2018-10-09T07:51:21.496Z,92.50
2018-10-09T07:52:21.491Z,92.60
2018-10-09T07:53:21.485Z,92.69
2018-10-09T07:54:21.480Z,92.79
2018-10-09T07:55:21.478Z,92.88
2018-10-09T07:56:21.480Z,92.79
2018-10-09T07:57:21.472Z,92.50
2018-10-09T07:58:21.469Z,92.50
2018-10-09T07:59:21.464Z,92.79
2018-10-09T08:00:21.460Z,92.79
2018-10-09T08:01:21.455Z,92.97
2018-10-09T08:02:21.454Z,92.69
2018-10-09T08:03:21.448Z,92.88
2018-10-09T08:04:21.464Z,92.97
2018-10-09T08:05:21.440Z,92.88
2018-10-09T08:06:21.437Z,92.79
2018-10-09T08:07:21.433Z,92.79
2018-10-09T08:08:21.433Z,92.83
2018-10-09T08:09:21.425Z,92.93
2018-10-09T08:10:21.452Z,92.55
2018-10-09T08:11:21.424Z,92.64
2018-10-09T08:12:21.416Z,92.55
2018-10-09T08:13:21.413Z,92.45
2018-10-09T08:14:21.410Z,92.64
2018-10-09T08:15:21.408Z,92.64
2018-10-09T08:16:21.453Z,92.64
2018-10-09T08:17:21.399Z,92.45
2018-10-09T08:18:21.400Z,92.55
2018-10-09T08:19:21.393Z,92.55
2018-10-09T08:20:21.391Z,92.83
2018-10-09T08:21:21.387Z,92.74
2018-10-09T08:22:21.420Z,92.26
2018-10-09T08:23:21.381Z,92.64
2018-10-09T08:24:21.378Z,93.02
2018-10-09T08:25:21.376Z,92.69
2018-10-09T08:26:21.374Z,92.59
2018-10-09T08:27:21.369Z,92.97
2018-10-09T08:28:21.373Z,92.88
2018-10-09T08:29:21.364Z,92.59
2018-10-09T08:30:21.360Z,92.21
2018-10-09T08:31:21.357Z,92.30
2018-10-09T08:32:21.429Z,92.59
2018-10-09T08:33:21.354Z,92.02
2018-10-09T08:34:21.430Z,92.50
2018-10-09T08:35:21.349Z,92.40
2018-10-09T08:36:21.342Z,92.59
2018-10-09T08:37:21.339Z,92.59
2018-10-09T08:38:21.339Z,92.30
2018-10-09T08:39:21.335Z,92.30
2018-10-09T08:40:21.357Z,92.50
2018-10-09T08:41:21.352Z,92.50
2018-10-09T08:42:21.325Z,92.30
2018-10-09T08:43:21.329Z,92.88
2018-10-09T08:44:21.319Z,91.93
2018-10-09T08:45:21.314Z,92.40
2018-10-09T08:46:21.402Z,92.11
2018-10-09T08:47:21.316Z,92.21
2018-10-09T08:48:21.308Z,92.02
2018-10-09T08:49:21.304Z,92.02
2018-10-09T08:50:21.303Z,92.02
2018-10-09T08:51:21.302Z,92.02
2018-10-09T08:52:21.300Z,92.11
2018-10-09T08:53:21.296Z,91.93
2018-10-09T08:54:21.293Z,91.93
2018-10-09T08:55:21.292Z,92.02
2018-10-09T08:56:21.285Z,92.30
2018-10-09T08:57:21.327Z,92.02
2018-10-09T08:58:21.281Z,92.21
2018-10-09T08:59:21.283Z,91.97
2018-10-09T09:00:21.276Z,92.11
2018-10-09T09:01:21.274Z,92.21
2018-10-09T09:02:21.271Z,92.30
2018-10-09T09:03:21.292Z,92.16
2018-10-09T09:04:21.264Z,92.35
2018-10-09T09:05:21.262Z,92.25
2018-10-09T09:06:21.287Z,91.88
2018-10-09T09:07:21.258Z,92.35
2018-10-09T09:08:21.257Z,92.16
2018-10-09T09:09:21.253Z,92.07
2018-10-09T09:10:21.251Z,91.78
2018-10-09T09:11:21.248Z,91.97
2018-10-09T09:12:21.245Z,92.16
2018-10-09T09:13:21.243Z,92.16
2018-10-09T09:14:21.239Z,92.25
2018-10-09T09:15:21.250Z,92.07
2018-10-09T09:16:21.235Z,91.97
2018-10-09T09:17:21.231Z,91.88
2018-10-09T09:18:21.229Z,92.07
2018-10-09T09:19:21.230Z,92.25
2018-10-09T09:20:21.243Z,92.35
2018-10-09T09:21:21.252Z,91.97
2018-10-09T09:22:21.323Z,92.40
2018-10-09T09:23:22.340Z,92.35
2018-10-09T09:24:21.388Z,92.49
2018-10-09T09:25:21.280Z,92.40
2018-10-09T09:26:21.215Z,92.30
2018-10-09T09:27:21.233Z,92.21
2018-10-09T09:28:21.207Z,91.73
2018-10-09T09:29:21.222Z,91.83
2018-10-09T09:30:21.202Z,92.11
2018-10-09T09:31:21.200Z,92.40
2018-10-09T09:32:21.196Z,92.11
2018-10-09T09:33:21.203Z,92.21
2018-10-09T09:34:21.201Z,91.83
2018-10-09T09:35:21.196Z,91.73
2018-10-09T09:36:21.191Z,91.83
2018-10-09T09:37:21.187Z,92.02
2018-10-09T09:38:21.201Z,92.02
2018-10-09T09:39:21.183Z,91.92
2018-10-09T09:40:21.180Z,91.97
2018-10-09T09:41:21.184Z,92.06
2018-10-09T09:42:21.177Z,91.39
2018-10-09T09:43:21.176Z,91.68
2018-10-09T09:44:21.179Z,91.58
2018-10-09T09:45:21.172Z,91.49
2018-10-09T09:46:21.259Z,91.49
2018-10-09T09:47:21.166Z,91.68
2018-10-09T09:48:21.165Z,91.68
2018-10-09T09:49:21.161Z,91.49
2018-10-09T09:50:21.164Z,91.58
2018-10-09T09:51:21.169Z,91.68
2018-10-09T09:52:21.376Z,91.68
2018-10-09T09:53:21.152Z,91.49
2018-10-09T09:54:21.154Z,91.49
2018-10-09T09:55:21.150Z,91.68
2018-10-09T09:56:21.205Z,91.68
2018-10-09T09:57:21.146Z,91.58
2018-10-09T09:58:21.225Z,91.87
2018-10-09T09:59:21.234Z,91.53
2018-10-09T10:00:21.153Z,91.87
2018-10-09T10:01:21.141Z,91.68
2018-10-09T10:02:21.136Z,91.39
2018-10-09T10:03:21.137Z,90.91
2018-10-09T10:04:21.153Z,91.44
2018-10-09T10:05:21.140Z,91.49
2018-10-09T10:06:21.149Z,91.20
2018-10-09T10:07:21.132Z,91.53
2018-10-09T10:08:21.125Z,91.53
2018-10-09T10:09:21.159Z,91.25
2018-10-09T10:10:21.132Z,91.25
2018-10-09T10:11:21.124Z,91.53
2018-10-09T10:12:21.119Z,91.53
2018-10-09T10:13:21.124Z,91.53
2018-10-09T10:14:21.115Z,91.63
2018-10-09T10:15:21.115Z,91.63
2018-10-09T10:16:21.116Z,91.53
2018-10-09T10:17:21.112Z,91.63
2018-10-09T10:18:21.111Z,90.77
2018-10-09T10:19:21.108Z,91.63
2018-10-09T10:20:21.119Z,90.91
2018-10-09T10:21:21.123Z,91.29
2018-10-09T10:22:21.108Z,90.91
2018-10-09T10:23:21.103Z,91.29
2018-10-09T10:24:21.101Z,91.10
2018-10-09T10:25:21.102Z,91.10
2018-10-09T10:26:21.101Z,91.29
2018-10-09T10:27:21.098Z,91.29
2018-10-09T10:28:21.098Z,91.29
2018-10-09T10:29:21.097Z,91.29
2018-10-09T10:30:21.091Z,91.49
2018-10-09T10:31:21.091Z,91.49
2018-10-09T10:32:21.088Z,91.53
2018-10-09T10:33:21.087Z,91.53
2018-10-09T10:34:21.099Z,90.67
2018-10-09T10:35:21.090Z,91.24
2018-10-09T10:36:21.092Z,90.47
2018-10-09T10:37:21.090Z,90.67
2018-10-09T10:38:21.087Z,90.57
2018-10-09T10:39:21.081Z,90.86
2018-10-09T10:40:21.080Z,90.57
2018-10-09T10:41:21.082Z,90.76
2018-10-09T10:42:21.078Z,90.67
2018-10-09T10:43:21.085Z,90.57
2018-10-09T10:44:21.082Z,90.76
2018-10-09T10:45:21.073Z,90.57
2018-10-09T10:46:21.075Z,90.57
2018-10-09T10:47:21.080Z,90.57
2018-10-09T10:48:21.068Z,90.86
2018-10-09T10:49:21.110Z,90.86
2018-10-09T10:50:21.074Z,90.76
2018-10-09T10:51:21.070Z,90.95
2018-10-09T10:52:21.069Z,90.86
2018-10-09T10:53:21.062Z,90.71
2018-10-09T10:54:21.092Z,90.95
2018-10-09T10:55:21.063Z,91.00
2018-10-09T10:56:21.060Z,90.90
2018-10-09T10:57:21.061Z,90.61
2018-10-09T10:58:21.060Z,90.90
2018-10-09T10:59:21.141Z,91.00
2018-10-09T11:00:21.063Z,91.19
2018-10-09T11:01:21.115Z,91.00
2018-10-09T11:02:21.055Z,90.71
2018-10-09T11:03:21.057Z,91.00
2018-10-09T11:04:21.055Z,90.71
2018-10-09T11:05:21.055Z,91.00
2018-10-09T11:06:21.051Z,90.81
2018-10-09T11:07:21.058Z,90.90
2018-10-09T11:08:21.104Z,90.71
2018-10-09T11:09:21.050Z,90.42
2018-10-09T11:10:21.048Z,91.19
2018-10-09T11:11:21.048Z,90.66
2018-10-09T11:12:21.047Z,90.47
2018-10-09T11:13:21.050Z,90.18
2018-10-09T11:14:21.045Z,90.18
2018-10-09T11:15:21.047Z,90.56
2018-10-09T11:16:21.060Z,90.66
2018-10-09T11:17:21.047Z,90.47
2018-10-09T11:18:21.044Z,90.66
2018-10-09T11:19:21.044Z,90.18
2018-10-09T11:20:21.041Z,90.37
2018-10-09T11:21:21.150Z,90.47
2018-10-09T11:22:21.043Z,90.28
2018-10-09T11:23:21.045Z,90.28
2018-10-09T11:24:21.040Z,89.99
2018-10-09T11:25:21.043Z,89.99
2018-10-09T11:26:21.040Z,90.28
2018-10-09T11:27:21.044Z,90.28
2018-10-09T11:28:21.040Z,90.28
2018-10-09T11:29:21.063Z,89.99
2018-10-09T11:30:21.053Z,90.47
2018-10-09T11:31:21.043Z,90.22
2018-10-09T11:32:21.061Z,90.03
2018-10-09T11:33:21.038Z,90.32
2018-10-09T11:34:21.040Z,90.32
2018-10-09T11:35:21.034Z,90.42
2018-10-09T11:36:21.036Z,90.32
2018-10-09T11:37:21.036Z,90.03
2018-10-09T11:38:21.036Z,90.32
2018-10-09T11:39:21.037Z,90.32
2018-10-09T11:40:21.043Z,90.52
2018-10-09T11:41:21.036Z,90.32
2018-10-09T11:42:21.034Z,90.32
2018-10-09T11:43:21.033Z,90.22
2018-10-09T11:44:21.030Z,90.22
2018-10-09T11:45:21.033Z,90.61
2018-10-09T11:46:21.034Z,90.61
2018-10-09T11:47:21.043Z,90.61
2018-10-09T11:48:21.030Z,90.56
2018-10-09T11:49:21.031Z,90.75
2018-10-09T11:50:21.030Z,90.56
2018-10-09T11:51:21.031Z,90.66
2018-10-09T11:52:21.037Z,90.56
2018-10-09T11:53:21.028Z,90.56
2018-10-09T11:54:21.030Z,90.27
2018-10-09T11:55:21.033Z,89.50
2018-10-09T11:56:21.028Z,89.79
2018-10-09T11:57:21.028Z,89.50
2018-10-09T11:58:21.029Z,89.40
2018-10-09T11:59:21.030Z,89.64
2018-10-09T12:00:21.027Z,90.03
2018-10-09T12:01:21.029Z,89.93
2018-10-09T12:02:21.031Z,89.74
2018-10-09T12:03:21.028Z,89.83
2018-10-09T12:04:21.028Z,89.36
2018-10-09T12:05:21.029Z,89.64
2018-10-09T12:06:21.031Z,89.45
2018-10-09T12:07:21.027Z,89.74
2018-10-09T12:08:21.027Z,89.45
2018-10-09T12:09:21.028Z,89.16
2018-10-09T12:10:21.027Z,89.64
2018-10-09T12:11:21.032Z,89.74
2018-10-09T12:12:21.028Z,89.45
2018-10-09T12:13:21.028Z,89.07
2018-10-09T12:14:21.031Z,89.11
2018-10-09T12:15:21.028Z,89.40
2018-10-09T12:16:21.040Z,89.30
2018-10-09T12:17:21.028Z,89.11
2018-10-09T12:18:21.030Z,88.63
2018-10-09T12:19:21.031Z,88.73
2018-10-09T12:20:21.029Z,89.30
2018-10-09T12:21:21.084Z,88.63
2018-10-09T12:22:21.040Z,89.01
2018-10-09T12:23:21.031Z,88.63
2018-10-09T12:24:21.029Z,88.53
2018-10-09T12:25:21.033Z,88.44
2018-10-09T12:26:21.035Z,88.15
2018-10-09T12:27:21.061Z,88.10
2018-10-09T12:28:21.031Z,88.29
2018-10-09T12:29:21.047Z,88.29
2018-10-09T12:30:21.041Z,88.39
2018-10-09T12:31:21.034Z,88.39
2018-10-09T12:32:21.032Z,88.10
2018-10-09T12:33:21.041Z,88.48
2018-10-09T12:34:21.037Z,87.71
2018-10-09T12:35:21.040Z,88.19
2018-10-09T12:36:21.036Z,88.48
2018-10-09T12:37:21.035Z,87.81
2018-10-09T12:38:21.088Z,87.62
2018-10-09T12:39:21.040Z,87.62
2018-10-09T12:40:21.039Z,87.13
2018-10-09T12:41:21.036Z,87.52
2018-10-09T12:42:21.038Z,87.56
2018-10-09T12:43:21.040Z,87.56
2018-10-09T12:44:21.095Z,87.71
2018-10-09T12:45:21.040Z,87.76
2018-10-09T12:46:21.040Z,87.76
2018-10-09T12:47:21.043Z,87.90
2018-10-09T12:48:21.043Z,87.76
2018-10-09T12:49:21.042Z,87.85
2018-10-09T12:50:21.047Z,87.46
2018-10-09T12:51:21.044Z,87.56
2018-10-09T12:52:21.044Z,87.76